Time;durP1;ratioP1;P1;durP2;ratioP2;P2;SDS_P1;SDS_P2;PMS_P1;PMS_P2;Temp;Humidity;BMP_temperature;BMP_pressure;BME280_temperature;BME280_humidity;BME280_pressure;Samples;Min_cycle;Max_cycle;Signal;HPM_P1;HPM_P2
2023/08/29 00:00:42;;;;;;;0.10;0.10;;;;;;;;;;5148902;27;20050;-44
2023/08/29 00:03:07;;;;;;;0.10;0.10;;;;;;;;;;5141061;27;20051;-43
2023/08/29 00:05:33;;;;;;;0.10;0.10;;;;;;;;;;5127592;28;20485;-43
2023/08/29 00:07:59;;;;;;;0.10;0.10;;;;;;;;;;5133843;27;20103;-42
2023/08/29 00:10:24;;;;;;;0.10;0.10;;;;;;;;;;5148314;27;20042;-43
2023/08/29 00:12:50;;;;;;;0.10;0.10;;;;;;;;;;5142788;27;20047;-43
2023/08/29 00:15:15;;;;;;;0.10;0.10;;;;;;;;;;5127590;28;20509;-43
2023/08/29 00:17:41;;;;;;;0.10;0.10;;;;;;;;;;5131738;27;20081;-43
2023/08/29 00:20:07;;;;;;;0.10;0.10;;;;;;;;;;5148594;27;20296;-43
2023/08/29 00:22:32;;;;;;;0.10;0.10;;;;;;;;;;5146031;27;20057;-44
2023/08/29 00:24:58;;;;;;;0.10;0.10;;;;;;;;;;5127526;27;20376;-43
2023/08/29 00:27:24;;;;;;;0.20;0.20;;;;;;;;;;5128762;27;20104;-43
2023/08/29 00:29:50;;;;;;;0.10;0.10;;;;;;;;;;5151183;27;20043;-44
2023/08/29 00:32:15;;;;;;;0.10;0.10;;;;;;;;;;5151896;27;20125;-43
2023/08/29 00:34:41;;;;;;;0.10;0.10;;;;;;;;;;5131050;27;20085;-43
2023/08/29 00:37:06;;;;;;;0.22;0.22;;;;;;;;;;5131130;28;20039;-43
2023/08/29 00:39:32;;;;;;;0.10;0.10;;;;;;;;;;5150308;27;20054;-41
2023/08/29 00:41:57;;;;;;;0.10;0.10;;;;;;;;;;5150977;27;20051;-43
2023/08/29 00:44:23;;;;;;;0.10;0.10;;;;;;;;;;5130299;28;20067;-43
2023/08/29 00:46:49;;;;;;;0.10;0.10;;;;;;;;;;5131032;27;20126;-43
2023/08/29 00:49:16;;;;;;;0.10;0.10;;;;;;;;;;5147906;27;20164;-43
2023/08/29 00:51:42;;;;;;;0.10;0.10;;;;;;;;;;5151879;27;20043;-43
2023/08/29 00:54:08;;;;;;;0.10;0.10;;;;;;;;;;5136505;27;20054;-44
2023/08/29 00:56:34;;;;;;;0.10;0.10;;;;;;;;;;5130755;28;20047;-43
2023/08/29 00:59:01;;;;;;;0.10;0.10;;;;;;;;;;5145733;27;20074;-43
2023/08/29 01:01:27;;;;;;;0.10;0.10;;;;;;;;;;5151465;27;20406;-44
2023/08/29 01:03:53;;;;;;;0.10;0.10;;;;;;;;;;5138573;27;20043;-43
2023/08/29 01:06:19;;;;;;;0.10;0.10;;;;;;;;;;5131023;28;20134;-43
2023/08/29 01:08:44;;;;;;;0.10;0.10;;;;;;;;;;5130407;27;20407;-41
2023/08/29 01:11:13;;;;;;;0.10;0.10;;;;;;;;;;5130587;28;20074;-43
2023/08/29 01:16:25;;;;;;;0.10;0.10;;;;;;;;;;5188062;27;20140;-43
2023/08/29 01:18:52;;;;;;;0.10;0.10;;;;;;;;;;5166959;27;20046;-43
2023/08/29 01:21:29;;;;;;;0.10;0.10;;;;;;;;;;5167158;27;20534;-43
2023/08/29 01:23:57;;;;;;;0.10;0.10;;;;;;;;;;5166371;27;20504;-43
2023/08/29 01:26:23;;;;;;;0.10;0.10;;;;;;;;;;5166767;27;20052;-43
2023/08/29 01:28:49;;;;;;;0.10;0.10;;;;;;;;;;5166623;27;20046;-43
2023/08/29 01:31:15;;;;;;;0.10;0.10;;;;;;;;;;5166993;27;20082;-43
2023/08/29 01:33:41;;;;;;;0.10;0.10;;;;;;;;;;5166119;27;20053;-43
2023/08/29 01:36:06;;;;;;;0.10;0.10;;;;;;;;;;5166013;27;20050;-43
2023/08/29 01:38:32;;;;;;;0.10;0.10;;;;;;;;;;5164109;27;20074;-43
2023/08/29 01:40:58;;;;;;;0.10;0.10;;;;;;;;;;5144635;27;20075;-43
2023/08/29 01:43:23;;;;;;;0.10;0.10;;;;;;;;;;5130910;27;20066;-43
2023/08/29 01:45:49;;;;;;;0.10;0.10;;;;;;;;;;5145287;27;20058;-43
2023/08/29 01:48:16;;;;;;;0.10;0.10;;;;;;;;;;5136472;27;20051;-43
2023/08/29 01:50:42;;;;;;;0.10;0.10;;;;;;;;;;5125163;28;20491;-43
2023/08/29 01:53:07;;;;;;;0.10;0.10;;;;;;;;;;5127843;27;20051;-43
2023/08/29 01:55:33;;;;;;;0.10;0.10;;;;;;;;;;5145411;27;20145;-43
2023/08/29 01:57:59;;;;;;;0.10;0.10;;;;;;;;;;5120234;28;20046;-44
2023/08/29 02:00:24;;;;;;;0.10;0.10;;;;;;;;;;5124844;28;20449;-43
2023/08/29 02:02:50;;;;;;;0.10;0.10;;;;;;;;;;5125368;27;20057;-43
2023/08/29 02:05:15;;;;;;;0.10;0.10;;;;;;;;;;5144825;27;20072;-44
2023/08/29 02:07:41;;;;;;;0.10;0.10;;;;;;;;;;5144992;27;20063;-43
2023/08/29 02:10:07;;;;;;;0.20;0.20;;;;;;;;;;5145115;27;20054;-43
2023/08/29 02:12:32;;;;;;;0.20;0.20;;;;;;;;;;5145224;27;20058;-43
2023/08/29 02:14:58;;;;;;;0.20;0.20;;;;;;;;;;5144780;27;20407;-42
2023/08/29 02:17:24;;;;;;;0.20;0.20;;;;;;;;;;5143183;27;20142;-43
2023/08/29 02:19:49;;;;;;;0.10;0.10;;;;;;;;;;5145183;27;20085;-43
2023/08/29 02:22:15;;;;;;;0.10;0.10;;;;;;;;;;5144858;27;20483;-43
2023/08/29 02:24:40;;;;;;;0.28;0.28;;;;;;;;;;5149034;27;20078;-43
2023/08/29 02:27:06;;;;;;;0.10;0.10;;;;;;;;;;5155742;27;20047;-43
2023/08/29 02:29:32;;;;;;;0.10;0.10;;;;;;;;;;5112353;27;20051;-43
2023/08/29 02:31:57;;;;;;;0.10;0.10;;;;;;;;;;5110535;28;20047;-44
2023/08/29 02:34:24;;;;;;;0.10;0.10;;;;;;;;;;5122515;28;20513;-43
2023/08/29 02:36:50;;;;;;;0.10;0.10;;;;;;;;;;5131025;28;20066;-43
2023/08/29 02:39:16;;;;;;;0.10;0.10;;;;;;;;;;5130550;28;20089;-43
2023/08/29 02:41:42;;;;;;;0.15;0.15;;;;;;;;;;5130887;28;20134;-43
2023/08/29 02:44:07;;;;;;;0.10;0.10;;;;;;;;;;5130388;28;20047;-43
2023/08/29 02:46:33;;;;;;;0.15;0.15;;;;;;;;;;5130395;28;20047;-41
2023/08/29 02:48:58;;;;;;;0.10;0.10;;;;;;;;;;5115454;28;20079;-43
2023/08/29 02:51:24;;;;;;;0.10;0.10;;;;;;;;;;5110293;28;20047;-43
2023/08/29 02:53:50;;;;;;;0.10;0.10;;;;;;;;;;5117333;28;20055;-43
2023/08/29 02:56:15;;;;;;;0.17;0.17;;;;;;;;;;5130899;28;20054;-44
2023/08/29 02:58:42;;;;;;;0.10;0.10;;;;;;;;;;5118178;28;20499;-43
2023/08/29 03:01:11;;;;;;;0.10;0.10;;;;;;;;;;5110189;28;20458;-43
2023/08/29 03:03:37;;;;;;;0.10;0.10;;;;;;;;;;5114709;28;20432;-44
2023/08/29 03:06:03;;;;;;;0.10;0.10;;;;;;;;;;5130339;28;20051;-43
2023/08/29 03:08:28;;;;;;;0.10;0.10;;;;;;;;;;5129669;27;20043;-43
2023/08/29 03:10:54;;;;;;;0.10;0.10;;;;;;;;;;5130558;28;20258;-43
2023/08/29 03:13:21;;;;;;;0.10;0.10;;;;;;;;;;5129787;28;20088;-43
2023/08/29 03:15:47;;;;;;;0.20;0.20;;;;;;;;;;5130292;28;20146;-43
2023/08/29 03:18:13;;;;;;;0.20;0.20;;;;;;;;;;5130399;28;20055;-43
2023/08/29 03:20:39;;;;;;;0.10;0.10;;;;;;;;;;5130405;28;20580;-43
2023/08/29 03:23:05;;;;;;;0.10;0.10;;;;;;;;;;5129616;28;20051;-43
2023/08/29 03:25:30;;;;;;;0.10;0.10;;;;;;;;;;5129973;27;20047;-43
2023/08/29 03:27:55;;;;;;;0.10;0.10;;;;;;;;;;5130184;28;20104;-43
2023/08/29 03:30:21;;;;;;;0.10;0.10;;;;;;;;;;5129920;28;20043;-43
2023/08/29 03:32:49;;;;;;;0.10;0.10;;;;;;;;;;5129761;28;20039;-43
2023/08/29 03:35:15;;;;;;;;;;;;;;;;;;5129704;28;20055;-43
2023/08/29 03:37:40;;;;;;;0.10;0.10;;;;;;;;;;5134432;27;19987;-44
2023/08/29 03:40:06;;;;;;;0.10;0.10;;;;;;;;;;5108923;28;20120;-43
2023/08/29 03:42:32;;;;;;;0.10;0.10;;;;;;;;;;5109121;28;20458;-43
2023/08/29 03:44:57;;;;;;;0.10;0.10;;;;;;;;;;5125143;28;20526;-43
2023/08/29 03:47:23;;;;;;;0.10;0.10;;;;;;;;;;5128952;28;20134;-41
2023/08/29 03:49:49;;;;;;;0.10;0.10;;;;;;;;;;5129599;27;20062;-43
2023/08/29 03:52:22;;;;;;;0.10;0.10;;;;;;;;;;5129955;28;20043;-43
2023/08/29 03:54:48;;;;;;;0.10;0.10;;;;;;;;;;5129127;27;20494;-43
2023/08/29 03:57:13;;;;;;;0.15;0.15;;;;;;;;;;5129388;28;20047;-43
2023/08/29 03:59:39;;;;;;;0.10;0.10;;;;;;;;;;5130174;28;20050;-43
2023/08/29 04:02:06;;;;;;;0.10;0.10;;;;;;;;;;5129480;28;20039;-43
2023/08/29 04:04:32;;;;;;;0.10;0.10;;;;;;;;;;5128690;28;20047;-43
2023/08/29 04:06:59;;;;;;;0.10;0.10;;;;;;;;;;5129525;28;20047;-43
2023/08/29 04:09:25;;;;;;;0.10;0.10;;;;;;;;;;5128974;28;20120;-43
2023/08/29 04:11:50;;;;;;;0.10;0.10;;;;;;;;;;5129279;28;20485;-43
2023/08/29 04:14:16;;;;;;;0.15;0.15;;;;;;;;;;5128835;28;20062;-42
2023/08/29 04:16:41;;;;;;;0.10;0.10;;;;;;;;;;5129383;28;20047;-43
2023/08/29 04:19:07;;;;;;;0.10;0.10;;;;;;;;;;5129448;28;20043;-43
2023/08/29 04:21:33;;;;;;;0.17;0.17;;;;;;;;;;5129434;28;20043;-43
2023/08/29 04:23:59;;;;;;;0.10;0.10;;;;;;;;;;5128767;28;20051;-43
2023/08/29 04:26:25;;;;;;;0.10;0.10;;;;;;;;;;5148594;27;20080;-43
2023/08/29 04:28:50;;;;;;;0.10;0.10;;;;;;;;;;5121514;27;20050;-43
2023/08/29 04:31:19;;;;;;;0.10;0.10;;;;;;;;;;5109201;28;20058;-43
2023/08/29 04:33:45;;;;;;;0.10;0.10;;;;;;;;;;5112084;28;20092;-43
2023/08/29 04:36:10;;;;;;;0.20;0.20;;;;;;;;;;5128823;28;20039;-43
2023/08/29 04:38:36;;;;;;;0.10;0.10;;;;;;;;;;5128890;28;20043;-42
2023/08/29 04:41:03;;;;;;;0.20;0.20;;;;;;;;;;5128865;28;20047;-43
2023/08/29 04:43:29;;;;;;;0.10;0.10;;;;;;;;;;5127327;28;20051;-43
2023/08/29 04:45:54;;;;;;;0.15;0.15;;;;;;;;;;5127639;28;20391;-43
2023/08/29 04:48:20;;;;;;;0.10;0.10;;;;;;;;;;5129011;28;20082;-43
2023/08/29 04:50:46;;;;;;;0.10;0.10;;;;;;;;;;5127876;27;20419;-43
2023/08/29 04:53:11;;;;;;;0.10;0.10;;;;;;;;;;5128177;28;20582;-44
2023/08/29 04:55:37;;;;;;;0.10;0.10;;;;;;;;;;5128003;28;20521;-43
2023/08/29 04:58:03;;;;;;;0.10;0.10;;;;;;;;;;5127991;28;20510;-43
2023/08/29 05:00:28;;;;;;;0.10;0.10;;;;;;;;;;5129048;28;20057;-43
2023/08/29 05:02:54;;;;;;;0.10;0.10;;;;;;;;;;5127858;28;20039;-44
2023/08/29 05:05:20;;;;;;;0.10;0.10;;;;;;;;;;5117274;27;20101;-43
2023/08/29 05:07:46;;;;;;;0.10;0.10;;;;;;;;;;5111799;28;20053;-43
2023/08/29 05:10:11;;;;;;;0.10;0.10;;;;;;;;;;5128331;28;20108;-43
2023/08/29 05:12:37;;;;;;;0.10;0.10;;;;;;;;;;5120677;27;20047;-43
2023/08/29 05:15:03;;;;;;;0.10;0.10;;;;;;;;;;5119483;28;20115;-43
2023/08/29 05:17:28;;;;;;;0.20;0.20;;;;;;;;;;5128004;28;20228;-41
2023/08/29 05:19:54;;;;;;;0.10;0.10;;;;;;;;;;5128372;28;20072;-43
2023/08/29 05:22:19;;;;;;;0.20;0.20;;;;;;;;;;5127834;28;20070;-44
2023/08/29 05:24:45;;;;;;;0.10;0.10;;;;;;;;;;5124954;27;20043;-43
2023/08/29 05:27:10;;;;;;;0.10;0.10;;;;;;;;;;5115182;28;20048;-43
2023/08/29 05:29:36;;;;;;;0.10;0.10;;;;;;;;;;5122421;27;20065;-43
2023/08/29 05:32:02;;;;;;;0.20;0.20;;;;;;;;;;5121348;27;20076;-43
2023/08/29 05:34:27;;;;;;;0.10;0.10;;;;;;;;;;5123101;27;20435;-54
2023/08/29 05:36:53;;;;;;;0.10;0.10;;;;;;;;;;5114863;27;20067;-43
2023/08/29 05:39:19;;;;;;;0.10;0.10;;;;;;;;;;5107139;28;20385;-44
2023/08/29 05:41:46;;;;;;;0.10;0.10;;;;;;;;;;5121980;28;20483;-46
2023/08/29 05:44:13;;;;;;;0.22;0.22;;;;;;;;;;5117229;28;20471;-43
2023/08/29 05:46:38;;;;;;;0.10;0.10;;;;;;;;;;5112552;28;20096;-42
2023/08/29 05:49:04;;;;;;;0.10;0.10;;;;;;;;;;5118188;28;20359;-43
2023/08/29 05:51:29;;;;;;;0.10;0.10;;;;;;;;;;5113122;28;20071;-45
2023/08/29 05:53:55;;;;;;;0.10;0.10;;;;;;;;;;5116767;28;20036;-44
2023/08/29 05:56:20;;;;;;;0.10;0.10;;;;;;;;;;5107784;28;20096;-43
2023/08/29 05:58:46;;;;;;;0.10;0.10;;;;;;;;;;5100726;28;20043;-43
2023/08/29 06:01:12;;;;;;;0.10;0.10;;;;;;;;;;5098661;27;20043;-42
2023/08/29 06:03:37;;;;;;;0.10;0.10;;;;;;;;;;5097733;27;20047;-43
2023/08/29 06:06:03;;;;;;;0.13;0.13;;;;;;;;;;5105304;28;20046;-43
2023/08/29 06:08:29;;;;;;;0.10;0.10;;;;;;;;;;5106767;28;20104;-43
2023/08/29 06:10:55;;;;;;;0.10;0.10;;;;;;;;;;5104867;28;20039;-43
2023/08/29 06:13:20;;;;;;;0.10;0.10;;;;;;;;;;5111155;27;20519;-43
2023/08/29 06:15:46;;;;;;;0.10;0.10;;;;;;;;;;5120176;27;20122;-43
2023/08/29 06:18:11;;;;;;;0.20;0.20;;;;;;;;;;5123626;27;20036;-44
2023/08/29 06:20:37;;;;;;;0.20;0.20;;;;;;;;;;5117648;27;20047;-44
2023/08/29 06:23:03;;;;;;;0.10;0.10;;;;;;;;;;5116669;27;20096;-43
2023/08/29 06:25:29;;;;;;;0.43;0.20;;;;;;;;;;5122838;27;20388;-44
2023/08/29 06:27:54;;;;;;;0.15;0.15;;;;;;;;;;5121385;27;20043;-43
2023/08/29 06:30:20;;;;;;;0.10;0.10;;;;;;;;;;5118592;27;20075;-44
2023/08/29 06:32:45;;;;;;;0.13;0.13;;;;;;;;;;5124262;27;20245;-43
2023/08/29 06:35:11;;;;;;;0.10;0.10;;;;;;;;;;5123299;27;20043;-44
2023/08/29 06:37:37;;;;;;;0.20;0.20;;;;;;;;;;5117233;27;20206;-43
2023/08/29 06:40:04;;;;;;;0.10;0.10;;;;;;;;;;5119144;27;20414;-44
2023/08/29 06:42:31;;;;;;;0.10;0.10;;;;;;;;;;5119354;27;20062;-44
2023/08/29 06:44:58;;;;;;;0.10;0.10;;;;;;;;;;5121102;27;20621;-44
2023/08/29 06:47:24;;;;;;;0.17;0.17;;;;;;;;;;5111472;27;20048;-46
2023/08/29 06:49:50;;;;;;;0.20;0.20;;;;;;;;;;5116743;27;20044;-45
2023/08/29 06:52:15;;;;;;;0.10;0.10;;;;;;;;;;5103238;27;20047;-44
2023/08/29 06:54:41;;;;;;;0.20;0.20;;;;;;;;;;5108853;27;20388;-44
2023/08/29 06:57:06;;;;;;;0.15;0.15;;;;;;;;;;5101866;27;20060;-43
2023/08/29 06:59:32;;;;;;;0.10;0.10;;;;;;;;;;5100460;27;20035;-43
2023/08/29 07:01:59;;;;;;;0.10;0.10;;;;;;;;;;5106307;27;20066;-43
2023/08/29 07:04:25;;;;;;;0.10;0.10;;;;;;;;;;5097569;27;20411;-43
2023/08/29 07:06:50;;;;;;;0.10;0.10;;;;;;;;;;5094540;27;20054;-43
2023/08/29 07:09:16;;;;;;;0.15;0.15;;;;;;;;;;5100693;27;20054;-43
2023/08/29 07:11:42;;;;;;;0.10;0.10;;;;;;;;;;5103396;27;20055;-43
2023/08/29 07:14:07;;;;;;;0.20;0.20;;;;;;;;;;5105239;27;20084;-44
2023/08/29 07:16:33;;;;;;;0.10;0.10;;;;;;;;;;5109920;27;20130;-43
2023/08/29 07:18:58;;;;;;;0.10;0.10;;;;;;;;;;5115967;27;20111;-43
2023/08/29 07:21:24;;;;;;;0.10;0.10;;;;;;;;;;5113829;27;20502;-43
2023/08/29 07:23:49;;;;;;;0.15;0.15;;;;;;;;;;5117687;27;20138;-43
2023/08/29 07:26:15;;;;;;;0.10;0.10;;;;;;;;;;5117271;27;20047;-43
2023/08/29 07:28:41;;;;;;;0.10;0.10;;;;;;;;;;5123372;27;20058;-43
2023/08/29 07:31:06;;;;;;;0.10;0.10;;;;;;;;;;5125158;27;20071;-43
2023/08/29 07:33:32;;;;;;;0.10;0.10;;;;;;;;;;5114062;27;20385;-44
2023/08/29 07:35:57;;;;;;;0.10;0.10;;;;;;;;;;5103833;27;20047;-43
2023/08/29 07:38:23;;;;;;;0.10;0.10;;;;;;;;;;5104417;27;20051;-43
2023/08/29 07:40:48;;;;;;;0.10;0.10;;;;;;;;;;5111228;27;20051;-43
2023/08/29 07:43:15;;;;;;;0.10;0.10;;;;;;;;;;5114192;27;20055;-43
2023/08/29 07:45:40;;;;;;;0.10;0.10;;;;;;;;;;5104598;27;20127;-44
2023/08/29 07:48:06;;;;;;;0.20;0.20;;;;;;;;;;5114206;27;20134;-42
2023/08/29 07:50:32;;;;;;;0.10;0.10;;;;;;;;;;5106813;27;20050;-44
2023/08/29 07:52:58;;;;;;;0.10;0.10;;;;;;;;;;5120496;27;20069;-43
2023/08/29 07:55:24;;;;;;;0.10;0.10;;;;;;;;;;5114545;27;20069;-43
2023/08/29 07:57:50;;;;;;;0.30;0.30;;;;;;;;;;5109583;27;20044;-43
2023/08/29 08:00:16;;;;;;;0.10;0.10;;;;;;;;;;5117299;27;20075;-43
2023/08/29 08:02:42;;;;;;;0.10;0.10;;;;;;;;;;5103266;27;20047;-43
2023/08/29 08:05:10;;;;;;;0.10;0.10;;;;;;;;;;5100048;27;20046;-42
2023/08/29 08:07:36;;;;;;;0.10;0.10;;;;;;;;;;5103215;27;20602;-42
2023/08/29 08:10:04;;;;;;;0.10;0.10;;;;;;;;;;5100542;27;20078;-43
2023/08/29 08:12:30;;;;;;;;;;;;;;;;;;5110031;27;20048;-43
2023/08/29 08:14:55;;;;;;;0.10;0.10;;;;;;;;;;5105248;27;20393;-45
2023/08/29 08:17:21;;;;;;;0.10;0.10;;;;;;;;;;5104365;27;20514;-45
2023/08/29 08:19:47;;;;;;;0.10;0.10;;;;;;;;;;5110417;28;20095;-44
2023/08/29 08:22:12;;;;;;;0.10;0.10;;;;;;;;;;5108858;27;20046;-43
2023/08/29 08:24:38;;;;;;;0.20;0.20;;;;;;;;;;5114604;27;20039;-43
2023/08/29 08:27:05;;;;;;;0.10;0.10;;;;;;;;;;5116594;27;20153;-42
2023/08/29 08:29:31;;;;;;;0.20;0.20;;;;;;;;;;5113100;27;20065;-42
2023/08/29 08:31:57;;;;;;;0.10;0.10;;;;;;;;;;5107077;27;20047;-42
2023/08/29 08:34:23;;;;;;;0.10;0.10;;;;;;;;;;5077983;28;20054;-45
2023/08/29 08:36:48;;;;;;;0.10;0.10;;;;;;;;;;5077711;28;20055;-42
2023/08/29 08:39:14;;;;;;;0.10;0.10;;;;;;;;;;5101029;27;20057;-44
2023/08/29 08:41:40;;;;;;;0.10;0.10;;;;;;;;;;5101393;27;20054;-42
2023/08/29 08:44:08;;;;;;;0.10;0.10;;;;;;;;;;5100498;27;20111;-43
2023/08/29 08:46:33;;;;;;;;;;;;;;;;;;5103233;27;20093;-42
2023/08/29 08:49:00;;;;;;;0.10;0.10;;;;;;;;;;5104492;28;19927;-44
2023/08/29 08:51:26;;;;;;;0.10;0.10;;;;;;;;;;5106400;28;20138;-43
2023/08/29 08:53:53;;;;;;;0.10;0.10;;;;;;;;;;5106991;27;20062;-44
2023/08/29 08:56:19;;;;;;;0.10;0.10;;;;;;;;;;5112579;27;20112;-48
2023/08/29 08:58:44;;;;;;;0.10;0.10;;;;;;;;;;5109275;27;20721;-54
2023/08/29 09:01:11;;;;;;;0.20;0.20;;;;;;;;;;5108294;28;20488;-50
2023/08/29 09:03:38;;;;;;;0.10;0.10;;;;;;;;;;5112140;27;20054;-45
2023/08/29 09:06:05;;;;;;;0.10;0.10;;;;;;;;;;5107873;27;20062;-43
2023/08/29 09:08:39;;;;;;;0.10;0.10;;;;;;;;;;5113838;27;20444;-43
2023/08/29 09:11:05;;;;;;;0.17;0.17;;;;;;;;;;5109867;28;20547;-42
2023/08/29 09:13:31;;;;;;;0.13;0.13;;;;;;;;;;5116782;28;20537;-46
2023/08/29 09:15:58;;;;;;;0.10;0.10;;;;;;;;;;5112980;27;20063;-42
2023/08/29 09:18:24;;;;;;;0.10;0.10;;;;;;;;;;5112037;27;20048;-42
2023/08/29 09:20:51;;;;;;;0.10;0.10;;;;;;;;;;5104311;27;20054;-46
2023/08/29 09:23:21;;;;;;;0.10;0.10;;;;;;;;;;5115524;28;20100;-46
2023/08/29 09:25:54;;;;;;;0.10;0.10;;;;;;;;;;5119234;27;20059;-44
2023/08/29 09:28:20;;;;;;;0.20;0.20;;;;;;;;;;5113737;28;20075;-42
2023/08/29 09:30:46;;;;;;;0.10;0.10;;;;;;;;;;5110494;28;20040;-41
2023/08/29 09:33:11;;;;;;;0.10;0.10;;;;;;;;;;5104621;28;20463;-44
2023/08/29 09:35:37;;;;;;;0.10;0.10;;;;;;;;;;5097335;28;20045;-42
2023/08/29 09:38:03;;;;;;;0.10;0.10;;;;;;;;;;5080683;27;20047;-44
2023/08/29 09:40:29;;;;;;;0.10;0.10;;;;;;;;;;5092257;27;20047;-42
2023/08/29 09:43:07;;;;;;;0.20;0.20;;;;;;;;;;5092681;27;20039;-43
2023/08/29 09:45:33;;;;;;;0.10;0.10;;;;;;;;;;5095880;27;20115;-42
2023/08/29 09:48:02;;;;;;;0.10;0.10;;;;;;;;;;5101282;27;20415;-43
2023/08/29 09:50:28;;;;;;;0.10;0.10;;;;;;;;;;5085320;28;20067;-42
2023/08/29 09:52:56;;;;;;;0.10;0.10;;;;;;;;;;5092476;28;20095;-42
2023/08/29 09:55:22;;;;;;;0.10;0.10;;;;;;;;;;5097976;28;20074;-42
2023/08/29 09:57:50;;;;;;;0.10;0.10;;;;;;;;;;5099202;28;20499;-44
2023/08/29 10:00:16;;;;;;;0.10;0.10;;;;;;;;;;5099092;28;20143;-42
2023/08/29 10:02:43;;;;;;;0.10;0.10;;;;;;;;;;5085940;28;20257;-43
2023/08/29 10:05:10;;;;;;;0.20;0.20;;;;;;;;;;5091483;27;20063;-42
2023/08/29 10:07:44;;;;;;;0.10;0.10;;;;;;;;;;5096349;27;20089;-46
2023/08/29 10:10:10;;;;;;;0.10;0.10;;;;;;;;;;5101253;28;20043;-43
2023/08/29 10:12:36;;;;;;;0.10;0.10;;;;;;;;;;5103284;28;20147;-44
2023/08/29 10:15:03;;;;;;;0.20;0.20;;;;;;;;;;5101344;28;20047;-43
2023/08/29 10:17:30;;;;;;;0.20;0.20;;;;;;;;;;5104478;28;20582;-43
2023/08/29 10:19:57;;;;;;;;;;;;;;;;;;5106440;28;20047;-52
2023/08/29 10:22:24;;;;;;;0.10;0.10;;;;;;;;;;5102963;27;19927;-43
2023/08/29 10:24:51;;;;;;;0.10;0.10;;;;;;;;;;5099457;27;20039;-45
2023/08/29 10:27:17;;;;;;;0.10;0.10;;;;;;;;;;5099096;27;20085;-49
2023/08/29 10:29:42;;;;;;;0.10;0.10;;;;;;;;;;5096834;28;20044;-45
2023/08/29 10:32:08;;;;;;;0.10;0.10;;;;;;;;;;5094470;27;20147;-41
2023/08/29 10:34:34;;;;;;;0.10;0.10;;;;;;;;;;5105951;27;20377;-45
2023/08/29 10:37:00;;;;;;;0.10;0.10;;;;;;;;;;5111172;28;20047;-46
2023/08/29 10:39:26;;;;;;;0.17;0.17;;;;;;;;;;5107206;28;20458;-45
2023/08/29 10:41:54;;;;;;;0.10;0.10;;;;;;;;;;5102644;27;20659;-45
2023/08/29 10:44:36;;;;;;;0.10;0.10;;;;;;;;;;5115655;28;20061;-42
2023/08/29 10:47:20;;;;;;;0.10;0.10;;;;;;;;;;5089302;28;20078;-43
2023/08/29 10:49:47;;;;;;;0.10;0.10;;;;;;;;;;5106406;28;20048;-42
2023/08/29 10:52:14;;;;;;;0.10;0.10;;;;;;;;;;5105412;28;20050;-45
2023/08/29 10:54:40;;;;;;;0.10;0.10;;;;;;;;;;5116786;28;20204;-42
2023/08/29 10:57:26;;;;;;;0.10;0.10;;;;;;;;;;5115766;28;20089;-45
2023/08/29 10:59:52;;;;;;;0.10;0.10;;;;;;;;;;5103006;28;20053;-43
2023/08/29 11:02:27;;;;;;;0.10;0.10;;;;;;;;;;5118216;28;20051;-45
2023/08/29 11:05:08;;;;;;;0.10;0.10;;;;;;;;;;5117125;28;20109;-45
2023/08/29 11:07:35;;;;;;;0.10;0.10;;;;;;;;;;5114985;28;20530;-53
2023/08/29 11:10:20;;;;;;;0.10;0.10;;;;;;;;;;5098364;28;20074;-53
2023/08/29 11:13:01;;;;;;;0.10;0.10;;;;;;;;;;5082558;28;20913;-52
2023/08/29 11:15:46;;;;;;;0.10;0.10;;;;;;;;;;5103891;28;20043;-43
2023/08/29 11:18:21;;;;;;;0.20;0.20;;;;;;;;;;5101633;28;20326;-43
2023/08/29 11:20:46;;;;;;;0.10;0.10;;;;;;;;;;5114512;28;20534;-44
2023/08/29 11:23:12;;;;;;;0.20;0.20;;;;;;;;;;5100128;28;20054;-43
2023/08/29 11:25:38;;;;;;;0.10;0.10;;;;;;;;;;5110397;27;20057;-47
2023/08/29 11:28:04;;;;;;;0.10;0.10;;;;;;;;;;5108160;28;20162;-44
2023/08/29 11:30:30;;;;;;;0.17;0.17;;;;;;;;;;5115536;27;20047;-42
2023/08/29 11:33:09;;;;;;;0.10;0.10;;;;;;;;;;5118157;28;20051;-44
2023/08/29 11:35:34;;;;;;;0.10;0.10;;;;;;;;;;5117481;28;20043;-42
2023/08/29 11:38:00;;;;;;;0.10;0.10;;;;;;;;;;5111774;28;20486;-42
2023/08/29 11:40:27;;;;;;;0.10;0.10;;;;;;;;;;5096039;28;20051;-46
2023/08/29 11:43:12;;;;;;;0.17;0.17;;;;;;;;;;5081538;28;20530;-44
2023/08/29 11:45:58;;;;;;;0.20;0.20;;;;;;;;;;5089992;28;20944;-45
2023/08/29 11:48:26;;;;;;;0.10;0.10;;;;;;;;;;5106970;28;20104;-42
2023/08/29 11:50:53;;;;;;;0.13;0.13;;;;;;;;;;5097995;28;20044;-45
2023/08/29 11:53:22;;;;;;;0.10;0.10;;;;;;;;;;5097090;28;20047;-45
2023/08/29 11:55:48;;;;;;;0.10;0.10;;;;;;;;;;5103387;28;20051;-42
2023/08/29 11:58:14;;;;;;;0.10;0.10;;;;;;;;;;5109214;28;20128;-44
2023/08/29 12:00:40;;;;;;;0.10;0.10;;;;;;;;;;5096238;28;20086;-46
2023/08/29 12:03:05;;;;;;;0.10;0.10;;;;;;;;;;5096906;28;20051;-42
2023/08/29 12:05:31;;;;;;;0.10;0.10;;;;;;;;;;5104069;28;20892;-44
2023/08/29 12:07:56;;;;;;;0.10;0.10;;;;;;;;;;5111530;28;20055;-43
2023/08/29 12:10:23;;;;;;;0.20;0.20;;;;;;;;;;5097106;28;20045;-44
2023/08/29 12:12:48;;;;;;;0.13;0.13;;;;;;;;;;5096893;28;20055;-43
2023/08/29 12:15:14;;;;;;;0.10;0.10;;;;;;;;;;5097383;28;20514;-42
2023/08/29 12:17:42;;;;;;;0.10;0.10;;;;;;;;;;5113546;28;20155;-44
2023/08/29 12:20:13;;;;;;;0.10;0.10;;;;;;;;;;5097740;28;20040;-45
2023/08/29 12:22:42;;;;;;;0.10;0.10;;;;;;;;;;5096220;28;20408;-44
2023/08/29 12:25:08;;;;;;;0.10;0.10;;;;;;;;;;5086858;28;20058;-42
2023/08/29 12:27:33;;;;;;;0.10;0.10;;;;;;;;;;5117292;27;20090;-43
2023/08/29 12:29:59;;;;;;;0.10;0.10;;;;;;;;;;5117872;28;20043;-42
2023/08/29 12:32:26;;;;;;;0.10;0.10;;;;;;;;;;5117240;28;20459;-43
2023/08/29 12:34:52;;;;;;;0.10;0.10;;;;;;;;;;5116826;28;20050;-43
2023/08/29 12:37:18;;;;;;;0.17;0.17;;;;;;;;;;5117239;28;20055;-43
2023/08/29 12:39:43;;;;;;;0.10;0.10;;;;;;;;;;5117368;28;20046;-43
2023/08/29 12:42:09;;;;;;;0.10;0.10;;;;;;;;;;5117013;28;20050;-42
2023/08/29 12:44:35;;;;;;;0.15;0.15;;;;;;;;;;5116925;28;20051;-45
2023/08/29 12:47:00;;;;;;;0.10;0.10;;;;;;;;;;5117280;28;20494;-43
2023/08/29 12:49:26;;;;;;;0.10;0.10;;;;;;;;;;5098194;28;20501;-42
2023/08/29 12:51:51;;;;;;;0.10;0.10;;;;;;;;;;5096109;28;20264;-43
2023/08/29 12:54:17;;;;;;;0.20;0.10;;;;;;;;;;5095846;28;20086;-46
2023/08/29 12:56:43;;;;;;;0.10;0.10;;;;;;;;;;5108370;28;20050;-42
2023/08/29 12:59:09;;;;;;;0.10;0.10;;;;;;;;;;5100105;28;20043;-42
2023/08/29 13:01:35;;;;;;;0.10;0.10;;;;;;;;;;5097066;28;20044;-42
2023/08/29 13:04:00;;;;;;;0.10;0.10;;;;;;;;;;5095400;28;20043;-43
2023/08/29 13:06:27;;;;;;;0.10;0.10;;;;;;;;;;5105126;28;20051;-43
2023/08/29 13:08:53;;;;;;;0.10;0.10;;;;;;;;;;5114934;27;20448;-43
2023/08/29 13:11:19;;;;;;;0.10;0.10;;;;;;;;;;5117374;27;20104;-44
2023/08/29 13:13:45;;;;;;;0.10;0.10;;;;;;;;;;5116946;28;20055;-43
2023/08/29 13:16:11;;;;;;;0.10;0.10;;;;;;;;;;5117220;27;20212;-43
2023/08/29 13:18:37;;;;;;;0.10;0.10;;;;;;;;;;5117434;28;20057;-44
2023/08/29 13:21:03;;;;;;;0.20;0.20;;;;;;;;;;5117445;28;20067;-42
2023/08/29 13:23:28;;;;;;;0.10;0.10;;;;;;;;;;5116717;28;20054;-41
2023/08/29 13:25:54;;;;;;;0.10;0.10;;;;;;;;;;5117529;27;20416;-42
2023/08/29 13:28:19;;;;;;;0.10;0.10;;;;;;;;;;5107579;28;20039;-45
2023/08/29 13:30:45;;;;;;;0.10;0.10;;;;;;;;;;5097006;28;20051;-42
2023/08/29 13:33:10;;;;;;;0.10;0.10;;;;;;;;;;5095928;28;20036;-43
2023/08/29 13:35:36;;;;;;;0.10;0.10;;;;;;;;;;5097174;28;20058;-41
2023/08/29 13:38:02;;;;;;;0.10;0.10;;;;;;;;;;5109494;28;20039;-43
2023/08/29 13:40:27;;;;;;;0.10;0.10;;;;;;;;;;5096581;28;20120;-42
2023/08/29 13:42:53;;;;;;;0.10;0.10;;;;;;;;;;5096004;28;20047;-42
2023/08/29 13:45:19;;;;;;;0.10;0.10;;;;;;;;;;5096312;28;20458;-42
2023/08/29 13:47:46;;;;;;;0.10;0.10;;;;;;;;;;5111713;28;20298;-43
2023/08/29 13:50:11;;;;;;;0.10;0.10;;;;;;;;;;5096965;28;20083;-41
2023/08/29 13:52:37;;;;;;;0.10;0.10;;;;;;;;;;5096209;28;20112;-42
2023/08/29 13:55:03;;;;;;;0.10;0.10;;;;;;;;;;5095988;28;20044;-45
2023/08/29 13:57:28;;;;;;;0.10;0.10;;;;;;;;;;5113370;28;20132;-43
2023/08/29 13:59:54;;;;;;;0.10;0.10;;;;;;;;;;5116804;28;20055;-43
2023/08/29 14:02:19;;;;;;;0.10;0.10;;;;;;;;;;5116613;28;20054;-43
2023/08/29 14:04:45;;;;;;;0.10;0.10;;;;;;;;;;5116044;28;20054;-43
2023/08/29 14:07:11;;;;;;;0.10;0.10;;;;;;;;;;5116950;28;20445;-43
2023/08/29 14:09:36;;;;;;;0.10;0.10;;;;;;;;;;5107635;28;20054;-43
2023/08/29 14:12:02;;;;;;;0.10;0.10;;;;;;;;;;5116824;28;20100;-42
2023/08/29 14:14:28;;;;;;;0.10;0.10;;;;;;;;;;5115701;28;20482;-43
2023/08/29 14:16:53;;;;;;;0.10;0.10;;;;;;;;;;5115675;28;20047;-42
2023/08/29 14:19:20;;;;;;;0.10;0.10;;;;;;;;;;5115906;28;20047;-42
2023/08/29 14:21:46;;;;;;;0.10;0.10;;;;;;;;;;5116072;27;20455;-42
2023/08/29 14:24:11;;;;;;;0.10;0.10;;;;;;;;;;5118138;27;20051;-41
2023/08/29 14:26:37;;;;;;;0.10;0.10;;;;;;;;;;5119970;27;20380;-42
2023/08/29 14:29:03;;;;;;;0.10;0.10;;;;;;;;;;5119028;28;20550;-42
2023/08/29 14:31:29;;;;;;;0.10;0.10;;;;;;;;;;5119020;28;20475;-41
2023/08/29 14:33:54;;;;;;;0.10;0.10;;;;;;;;;;5118431;28;20043;-41
2023/08/29 14:36:20;;;;;;;0.10;0.10;;;;;;;;;;5118854;28;20725;-42
2023/08/29 14:38:45;;;;;;;0.10;0.10;;;;;;;;;;5105560;28;20052;-42
2023/08/29 14:41:11;;;;;;;0.10;0.10;;;;;;;;;;5098402;28;20051;-42